createdAt,value
2018-05-09T00:08:15.014Z,99.99
2018-05-09T00:19:07.439Z,99.99
2018-05-09T00:29:59.761Z,99.99
2018-05-09T00:40:55.262Z,99.99
2018-05-09T00:51:49.410Z,99.99
2018-05-09T01:02:32.330Z,99.99
2018-05-09T01:13:21.869Z,99.99
2018-05-09T01:24:12.223Z,99.99
2018-05-09T01:34:57.170Z,99.99
2018-05-09T01:45:50.916Z,99.99
2018-05-09T01:56:50.555Z,99.99
2018-05-09T02:07:39.499Z,99.99
2018-05-09T02:18:35.643Z,99.99
2018-05-09T02:29:27.580Z,99.99
2018-05-09T02:40:21.017Z,99.99
2018-05-09T02:51:15.207Z,99.99
2018-05-09T03:02:02.583Z,99.99
2018-05-09T03:12:49.902Z,99.99
2018-05-09T03:23:37.012Z,99.99
2018-05-09T03:34:30.177Z,99.99
2018-05-09T03:45:24.869Z,99.99
2018-05-09T03:56:26.584Z,99.99
2018-05-09T04:07:27.204Z,99.99
2018-05-09T04:18:29.281Z,99.99
2018-05-09T04:29:30.390Z,99.99
2018-05-09T04:40:32.480Z,99.99
2018-05-09T04:51:35.688Z,99.99
2018-05-09T05:02:38.251Z,99.99
2018-05-09T05:13:39.966Z,99.98
2018-05-09T05:24:43.204Z,99.38
2018-05-09T05:35:44.075Z,99.99
2018-05-09T05:46:46.719Z,94.73
2018-05-09T05:57:49.217Z,93.83
2018-05-09T06:08:51.789Z,90.64
2018-05-09T06:19:53.608Z,88.84
2018-05-09T06:30:56.248Z,86.49
2018-05-09T06:41:59.741Z,85.74
2018-05-09T06:53:02.548Z,83.64
2018-05-09T07:04:03.276Z,81.71
2018-05-09T07:15:05.112Z,79.82
2018-05-09T07:26:07.043Z,74.55
2018-05-09T07:37:10.265Z,72.37
2018-05-09T07:48:13.278Z,71.90
2018-05-09T07:59:15.025Z,70.03
2018-05-09T08:10:17.017Z,67.08
2018-05-09T08:21:19.780Z,66.05
2018-05-09T08:32:22.300Z,64.51
2018-05-09T08:43:24.126Z,65.59
2018-05-09T08:54:07.616Z,65.90
2018-05-09T09:04:49.089Z,64.03
2018-05-09T09:15:32.891Z,62.39
2018-05-09T09:26:14.880Z,60.58
2018-05-09T09:36:56.313Z,58.89
2018-05-09T09:47:39.985Z,59.06
2018-05-09T09:58:23.633Z,61.51
2018-05-09T10:09:06.378Z,61.38
2018-05-09T10:19:44.643Z,56.27
2018-05-09T10:30:28.112Z,57.12
2018-05-09T10:41:11.892Z,55.42
2018-05-09T10:51:55.616Z,56.39
2018-05-09T11:02:38.305Z,58.18
2018-05-09T11:13:21.751Z,56.09
2018-05-09T11:24:06.539Z,54.24
2018-05-09T11:34:47.657Z,50.13
2018-05-09T11:45:30.525Z,47.75
2018-05-09T11:56:13.775Z,48.05
2018-05-09T12:06:55.745Z,48.42
2018-05-09T12:17:37.642Z,52.51
2018-05-09T12:28:20.747Z,53.78
2018-05-09T12:39:05.147Z,51.62
2018-05-09T12:49:47.046Z,49.01
2018-05-09T13:00:30.593Z,49.91
2018-05-09T13:11:08.947Z,44.58
2018-05-09T13:21:52.402Z,42.56
2018-05-09T13:32:38.646Z,41.94
2018-05-09T13:43:28.053Z,39.42
2018-05-09T13:54:11.339Z,40.58
2018-05-09T14:04:52.387Z,41.39
2018-05-09T14:15:39.623Z,39.52
2018-05-09T14:26:25.357Z,36.34
2018-05-09T14:36:59.997Z,40.44
2018-05-09T14:47:44.584Z,42.01
2018-05-09T14:58:27.571Z,37.92
2018-05-09T15:09:26.469Z,40.19
2018-05-09T15:20:04.302Z,43.16
2018-05-09T15:30:42.690Z,51.45
2018-05-09T15:41:24.430Z,48.07
2018-05-09T15:52:07.184Z,53.52
2018-05-09T16:02:47.504Z,53.77
2018-05-09T16:13:33.742Z,57.76
2018-05-09T16:24:14.761Z,56.84
2018-05-09T16:35:04.556Z,58.67
2018-05-09T16:45:45.679Z,61.19
2018-05-09T16:56:23.350Z,59.62
2018-05-09T17:07:01.279Z,61.95
2018-05-09T17:17:48.481Z,61.85
2018-05-09T17:28:31.021Z,64.31
2018-05-09T17:39:31.019Z,67.36
2018-05-09T17:50:32.166Z,69.02
2018-05-09T18:01:30.448Z,71.53
2018-05-09T18:12:30.354Z,74.43
2018-05-09T18:23:29.977Z,77.91
2018-05-09T18:34:30.477Z,80.63
2018-05-09T18:45:31.453Z,80.71
2018-05-09T18:56:26.731Z,82.26
2018-05-09T19:07:18.946Z,80.19
2018-05-09T19:18:18.386Z,81.57
2018-05-09T19:29:16.318Z,85.14
2018-05-09T19:40:17.229Z,84.37
2018-05-09T19:51:16.568Z,85.02
2018-05-09T20:02:12.644Z,86.57
2018-05-09T20:13:08.537Z,89.58
2018-05-09T20:24:03.919Z,90.39
2018-05-09T20:35:02.354Z,90.23
2018-05-09T20:45:59.921Z,90.43
2018-05-09T20:57:00.487Z,91.38
2018-05-09T21:08:00.104Z,91.18
2018-05-09T21:19:00.696Z,92.38
2018-05-09T21:30:00.030Z,92.79
2018-05-09T21:40:57.837Z,93.33
2018-05-09T21:51:59.211Z,93.03
2018-05-09T22:02:59.947Z,94.35
2018-05-09T22:13:59.426Z,94.34
2018-05-09T22:24:59.132Z,96.41
2018-05-09T22:36:00.979Z,96.61
2018-05-09T22:47:02.072Z,96.30
2018-05-09T22:58:02.758Z,95.90
2018-05-09T23:09:03.768Z,95.84
2018-05-09T23:20:03.546Z,95.68
2018-05-09T23:31:04.166Z,96.95
2018-05-09T23:42:04.716Z,96.54
2018-05-09T23:53:06.953Z,97.15
